Time;durP1;ratioP1;P1;durP2;ratioP2;P2;SDS_P1;SDS_P2;PMS_P1;PMS_P2;Temp;Humidity;BMP_temperature;BMP_pressure;BME280_temperature;BME280_humidity;BME280_pressure;Samples;Min_cycle;Max_cycle;Signal;HPM_P1;HPM_P2
2023/08/05 00:01:06;;;;;;;;;;;;;;;24.64;42.55;101384.97;5022817;28;19917;-81
2023/08/05 00:03:31;;;;;;;;;;;;;;;24.55;42.82;101388.84;5022641;28;19925;-81
2023/08/05 00:05:56;;;;;;;;;;;;;;;24.52;42.64;101381.28;5023280;28;19975;-82
2023/08/05 00:08:23;;;;;;;;;;;;;;;24.42;42.80;101393.41;5022071;28;20422;-81
2023/08/05 00:10:48;;;;;;;;;;;;;;;24.34;42.85;101386.78;5018415;28;19921;-82
2023/08/05 00:13:14;;;;;;;;;;;;;;;24.28;42.78;101385.34;5020943;28;19921;-81
2023/08/05 00:15:39;;;;;;;;;;;;;;;24.26;42.81;101390.34;5020765;28;19924;-81
2023/08/05 00:18:05;;;;;;;;;;;;;;;24.23;43.00;101390.16;5025940;28;19940;-81
2023/08/05 00:20:30;;;;;;;;;;;;;;;24.22;42.59;101397.56;5028779;28;19951;-81
2023/08/05 00:22:55;;;;;;;;;;;;;;;24.17;42.82;101396.94;5019452;28;20301;-81
2023/08/05 00:25:21;;;;;;;;;;;;;;;24.13;42.90;101402.25;5017624;28;19963;-81
2023/08/05 00:27:46;;;;;;;;;;;;;;;24.10;42.83;101406.47;5028678;28;19933;-81
2023/08/05 00:30:12;;;;;;;;;;;;;;;24.07;42.72;101406.31;5019999;28;20300;-81
2023/08/05 00:32:37;;;;;;;;;;;;;;;24.05;42.58;101409.34;5013186;28;19917;-81
2023/08/05 00:35:04;;;;;;;;;;;;;;;24.02;42.70;101404.50;5022029;28;20427;-81
2023/08/05 00:37:29;;;;;;;;;;;;;;;23.95;42.90;101403.41;5027130;28;19917;-81
2023/08/05 00:39:54;;;;;;;;;;;;;;;23.86;43.00;101408.88;5010494;28;19929;-82
2023/08/05 00:42:20;;;;;;;;;;;;;;;23.85;42.95;101410.00;5005972;28;19940;-81
2023/08/05 00:44:45;;;;;;;;;;;;;;;23.85;42.81;101420.13;5014988;28;19967;-82
2023/08/05 00:47:10;;;;;;;;;;;;;;;23.81;42.88;101415.31;5020838;28;19917;-81
2023/08/05 00:49:36;;;;;;;;;;;;;;;23.78;42.89;101404.19;5018869;28;19951;-81
2023/08/05 00:52:02;;;;;;;;;;;;;;;23.75;42.97;101408.38;5025420;28;19924;-81
2023/08/05 00:54:27;;;;;;;;;;;;;;;23.73;42.75;101416.13;5016474;28;20420;-81
2023/08/05 00:56:54;;;;;;;;;;;;;;;23.72;42.74;101416.44;5010699;28;19917;-81
2023/08/05 00:59:19;;;;;;;;;;;;;;;23.64;42.89;101414.47;5021803;28;19921;-81
2023/08/05 01:01:45;;;;;;;;;;;;;;;23.60;42.83;101414.31;5021229;28;19927;-81
2023/08/05 01:04:10;;;;;;;;;;;;;;;23.58;42.73;101413.84;5023563;28;19917;-81
2023/08/05 01:06:36;;;;;;;;;;;;;;;23.55;42.83;101428.13;5020860;28;20404;-81
2023/08/05 01:09:01;;;;;;;;;;;;;;;23.52;42.77;101420.56;5026519;28;19916;-82
2023/08/05 01:11:27;;;;;;;;;;;;;;;23.47;43.00;101426.16;5026243;28;19955;-81
2023/08/05 01:13:52;;;;;;;;;;;;;;;23.40;43.00;101423.91;5027212;28;20012;-81
2023/08/05 01:16:17;;;;;;;;;;;;;;;23.35;43.07;101428.72;5019088;28;19934;-81
2023/08/05 01:18:43;;;;;;;;;;;;;;;23.31;43.05;101419.53;5022238;28;20288;-82
2023/08/05 01:21:16;;;;;;;;;;;;;;;23.29;43.11;101417.09;5021195;28;19944;-81
2023/08/05 01:23:59;;;;;;;;;;;;;;;23.29;43.06;101421.78;5024124;28;20301;-81
2023/08/05 01:26:25;;;;;;;;;;;;;;;23.25;43.08;101418.88;5032097;28;20277;-81
2023/08/05 01:28:51;;;;;;;;;;;;;;;23.24;43.19;101413.72;5027810;28;19931;-81
2023/08/05 01:31:16;;;;;;;;;;;;;;;23.22;43.43;101414.03;5024574;28;21858;-81
2023/08/05 01:33:42;;;;;;;;;;;;;;;23.19;43.30;101415.50;5024548;28;19921;-81
2023/08/05 01:36:07;;;;;;;;;;;;;;;23.14;43.66;101407.41;5024482;28;19925;-81
2023/08/05 01:38:32;;;;;;;;;;;;;;;23.03;43.84;101410.75;5021250;28;20008;-81
2023/08/05 01:40:57;;;;;;;;;;;;;;;22.88;44.33;101415.53;5019514;28;19925;-81
2023/08/05 01:43:23;;;;;;;;;;;;;;;22.81;44.40;101414.34;5028716;28;19979;-81
2023/08/05 01:45:49;;;;;;;;;;;;;;;22.80;44.17;101408.06;5027823;28;19970;-82
2023/08/05 01:48:14;;;;;;;;;;;;;;;22.82;44.07;101405.88;5030694;28;19917;-81
2023/08/05 01:50:39;;;;;;;;;;;;;;;22.84;43.93;101411.81;5030247;28;20456;-81
2023/08/05 01:53:05;;;;;;;;;;;;;;;22.87;43.94;101407.66;5027369;28;20380;-81
2023/08/05 01:55:30;;;;;;;;;;;;;;;22.87;44.01;101411.19;5024296;28;19921;-81
2023/08/05 01:57:55;;;;;;;;;;;;;;;22.88;43.93;101414.72;5023253;28;20404;-81
2023/08/05 02:00:21;;;;;;;;;;;;;;;22.86;43.96;101422.44;5023819;28;19933;-82
2023/08/05 02:02:47;;;;;;;;;;;;;;;22.84;43.81;101420.00;5031195;28;19921;-81
2023/08/05 02:05:12;;;;;;;;;;;;;;;22.83;44.07;101418.41;5028029;28;19917;-81
2023/08/05 02:07:37;;;;;;;;;;;;;;;22.80;44.06;101418.16;5025606;28;19917;-81
2023/08/05 02:10:03;;;;;;;;;;;;;;;22.77;44.16;101413.34;5027288;28;20400;-81
2023/08/05 02:12:28;;;;;;;;;;;;;;;22.72;44.39;101418.94;5022647;28;20384;-82
2023/08/05 02:14:53;;;;;;;;;;;;;;;22.70;44.17;101411.06;5034481;28;20407;-81
2023/08/05 02:17:20;;;;;;;;;;;;;;;22.68;44.30;101418.78;5027847;28;19974;-81
2023/08/05 02:19:45;;;;;;;;;;;;;;;22.68;44.19;101415.22;5026131;28;19925;-82
2023/08/05 02:22:11;;;;;;;;;;;;;;;22.66;44.32;101415.56;5029541;28;20446;-81
2023/08/05 02:24:36;;;;;;;;;;;;;;;22.65;44.03;101410.41;5022746;28;19917;-81
2023/08/05 02:27:01;;;;;;;;;;;;;;;22.64;44.33;101415.06;5025623;28;19922;-81
2023/08/05 02:29:27;;;;;;;;;;;;;;;22.63;44.21;101429.84;5021317;28;19921;-81
2023/08/05 02:31:52;;;;;;;;;;;;;;;22.61;44.26;101421.94;5007599;28;19924;-82
2023/08/05 02:34:17;;;;;;;;;;;;;;;22.61;44.29;101421.13;5026082;28;19931;-82
2023/08/05 02:36:42;;;;;;;;;;;;;;;22.60;44.29;101423.03;5023520;28;19917;-81
2023/08/05 02:39:08;;;;;;;;;;;;;;;22.58;44.32;101428.03;5023928;28;20423;-81
2023/08/05 02:41:33;;;;;;;;;;;;;;;22.51;44.44;101424.94;5024398;28;19956;-81
2023/08/05 02:43:58;;;;;;;;;;;;;;;22.42;44.50;101421.31;5027010;28;19924;-81
2023/08/05 02:46:24;;;;;;;;;;;;;;;22.38;44.36;101417.63;5025126;28;19917;-81
2023/08/05 02:48:49;;;;;;;;;;;;;;;22.38;44.47;101425.81;5021325;28;19918;-81
2023/08/05 02:51:14;;;;;;;;;;;;;;;22.39;44.20;101427.41;5024564;28;20400;-81
2023/08/05 02:53:40;;;;;;;;;;;;;;;22.39;44.19;101429.34;5022841;28;20015;-81
2023/08/05 02:56:05;;;;;;;;;;;;;;;22.39;44.21;101426.59;5026765;28;20126;-81
2023/08/05 02:58:30;;;;;;;;;;;;;;;22.36;44.09;101428.03;5027909;28;19921;-81
2023/08/05 03:01:03;;;;;;;;;;;;;;;22.32;44.18;101432.53;5015871;28;20035;-81
2023/08/05 03:03:29;;;;;;;;;;;;;;;22.30;44.15;101434.75;5021530;28;19924;-81
2023/08/05 03:05:54;;;;;;;;;;;;;;;22.27;44.22;101438.91;5030774;28;19917;-81
2023/08/05 03:08:19;;;;;;;;;;;;;;;22.25;44.22;101453.97;5028063;28;20029;-81
2023/08/05 03:10:45;;;;;;;;;;;;;;;22.24;44.16;101449.63;5027953;28;19924;-81
2023/08/05 03:13:10;;;;;;;;;;;;;;;22.18;44.49;101448.13;5026205;28;19921;-81
2023/08/05 03:15:35;;;;;;;;;;;;;;;22.13;44.37;101451.00;5029277;28;19983;-81
2023/08/05 03:18:01;;;;;;;;;;;;;;;22.11;44.53;101447.78;5022936;28;19917;-82
2023/08/05 03:20:27;;;;;;;;;;;;;;;22.11;44.26;101445.03;5023619;28;19940;-81
2023/08/05 03:22:53;;;;;;;;;;;;;;;22.11;44.29;101447.78;5017192;28;19917;-81
2023/08/05 03:25:18;;;;;;;;;;;;;;;22.10;44.34;101437.97;5023010;28;20021;-81
2023/08/05 03:27:44;;;;;;;;;;;;;;;22.08;44.32;101440.19;5018651;28;21009;-81
2023/08/05 03:30:09;;;;;;;;;;;;;;;22.03;44.29;101447.34;5021086;28;19940;-82
2023/08/05 03:32:34;;;;;;;;;;;;;;;21.98;44.27;101442.00;5022964;28;19918;-81
2023/08/05 03:35:00;;;;;;;;;;;;;;;21.93;44.13;101439.41;5023216;28;19925;-81
2023/08/05 03:37:26;;;;;;;;;;;;;;;21.90;44.42;101429.13;5022395;28;19917;-81
2023/08/05 03:39:51;;;;;;;;;;;;;;;21.88;44.38;101431.31;5019224;28;19924;-81
2023/08/05 03:42:17;;;;;;;;;;;;;;;21.85;44.33;101436.59;5002355;28;20526;-81
2023/08/05 03:44:42;;;;;;;;;;;;;;;21.81;44.59;101435.59;5019180;28;20503;-81
2023/08/05 03:47:08;;;;;;;;;;;;;;;21.77;44.73;101429.13;5022019;28;19967;-81
2023/08/05 03:49:33;;;;;;;;;;;;;;;21.77;44.70;101435.41;5019061;28;20293;-81
2023/08/05 03:51:59;;;;;;;;;;;;;;;21.77;44.81;101429.13;5017726;28;21537;-81
2023/08/05 03:54:24;;;;;;;;;;;;;;;21.77;44.72;101427.22;5025809;28;20405;-81
2023/08/05 03:56:51;;;;;;;;;;;;;;;21.78;45.06;101428.84;5016301;28;19940;-81
2023/08/05 03:59:16;;;;;;;;;;;;;;;21.79;44.99;101433.16;5022868;28;19925;-81
2023/08/05 04:01:41;;;;;;;;;;;;;;;21.80;44.88;101442.97;5022490;28;20351;-81
2023/08/05 04:04:07;;;;;;;;;;;;;;;21.80;45.19;101442.16;5026498;28;19928;-81
2023/08/05 04:06:32;;;;;;;;;;;;;;;21.84;45.06;101437.69;5027668;28;19925;-81
2023/08/05 04:08:57;;;;;;;;;;;;;;;21.87;45.19;101451.53;5021116;28;20392;-81
2023/08/05 04:11:23;;;;;;;;;;;;;;;21.92;45.02;101450.63;5007298;28;20148;-81
2023/08/05 04:13:51;;;;;;;;;;;;;;;21.95;45.13;101453.53;5022799;28;19917;-81
2023/08/05 04:16:16;;;;;;;;;;;;;;;21.96;44.84;101449.69;5021915;28;19929;-81
2023/08/05 04:18:42;;;;;;;;;;;;;;;21.94;44.91;101453.84;5019297;28;20395;-81
2023/08/05 04:21:10;;;;;;;;;;;;;;;21.89;44.87;101449.28;5025292;28;20027;-81
2023/08/05 04:23:35;;;;;;;;;;;;;;;21.88;45.17;101458.59;5025707;28;19960;-82
2023/08/05 04:26:01;;;;;;;;;;;;;;;21.88;45.08;101464.06;5025462;28;19968;-81
2023/08/05 04:28:26;;;;;;;;;;;;;;;21.88;45.37;101453.13;5018324;28;19917;-81
2023/08/05 04:30:53;;;;;;;;;;;;;;;21.88;45.51;101453.13;5026000;28;19924;-81
2023/08/05 04:33:18;;;;;;;;;;;;;;;21.95;45.48;101460.94;5006578;28;19932;-81
2023/08/05 04:35:47;;;;;;;;;;;;;;;22.00;45.38;101458.06;5007906;28;20296;-81
2023/08/05 04:38:13;;;;;;;;;;;;;;;22.05;45.54;101457.97;5024485;28;19916;-81
2023/08/05 04:40:38;;;;;;;;;;;;;;;22.11;45.72;101450.50;5024128;28;19917;-81
2023/08/05 04:43:03;;;;;;;;;;;;;;;22.19;45.50;101447.81;5018505;28;19921;-81
2023/08/05 04:45:29;;;;;;;;;;;;;;;22.27;45.43;101455.28;5028175;28;20373;-81
2023/08/05 04:47:54;;;;;;;;;;;;;;;22.36;45.46;101474.44;5023833;28;19921;-81
2023/08/05 04:50:19;;;;;;;;;;;;;;;22.42;45.47;101470.47;5021600;28;19921;-81
2023/08/05 04:52:45;;;;;;;;;;;;;;;22.51;45.61;101476.81;5021249;28;19921;-82
2023/08/05 04:55:11;;;;;;;;;;;;;;;22.56;45.64;101467.69;5010763;28;20031;-81
2023/08/05 04:57:37;;;;;;;;;;;;;;;22.60;45.70;101464.00;5019570;28;20604;-81
2023/08/05 05:00:02;;;;;;;;;;;;;;;22.63;45.76;101467.25;5009843;28;19917;-81
2023/08/05 05:02:27;;;;;;;;;;;;;;;22.66;45.68;101461.19;5029131;28;19931;-81
2023/08/05 05:04:53;;;;;;;;;;;;;;;22.73;45.40;101464.25;5019842;28;19925;-81
2023/08/05 05:07:18;;;;;;;;;;;;;;;22.81;45.53;101458.06;5021457;28;19932;-81
2023/08/05 05:09:43;;;;;;;;;;;;;;;22.89;45.46;101454.59;5025517;28;19917;-81
2023/08/05 05:12:09;;;;;;;;;;;;;;;22.96;45.37;101454.94;5021951;28;19929;-81
2023/08/05 05:14:34;;;;;;;;;;;;;;;23.03;45.35;101452.56;5008264;28;19967;-81
2023/08/05 05:16:59;;;;;;;;;;;;;;;23.11;45.14;101462.72;5026981;28;20002;-81
2023/08/05 05:19:24;;;;;;;;;;;;;;;23.18;45.08;101473.22;5012301;28;20495;-81
2023/08/05 05:21:50;;;;;;;;;;;;;;;23.20;45.39;101474.50;5023402;28;19925;-81
2023/08/05 05:24:15;;;;;;;;;;;;;;;23.21;45.28;101483.50;5022028;28;19924;-82
2023/08/05 05:26:40;;;;;;;;;;;;;;;23.25;45.31;101489.16;5029209;28;19928;-82
2023/08/05 05:29:06;;;;;;;;;;;;;;;23.24;45.36;101495.75;5021787;28;19932;-82
2023/08/05 05:31:31;;;;;;;;;;;;;;;23.23;45.33;101488.66;5017896;28;20008;-82
2023/08/05 05:33:57;;;;;;;;;;;;;;;23.25;45.32;101478.22;5025750;28;20426;-82
2023/08/05 05:36:22;;;;;;;;;;;;;;;23.26;45.54;101480.63;5021760;28;19922;-81
2023/08/05 05:38:47;;;;;;;;;;;;;;;23.31;45.42;101487.88;5027760;28;19928;-82
2023/08/05 05:41:13;;;;;;;;;;;;;;;23.37;45.28;101492.09;5021752;28;20419;-81
2023/08/05 05:43:38;;;;;;;;;;;;;;;23.45;45.16;101494.06;5023753;28;20013;-82
2023/08/05 05:46:05;;;;;;;;;;;;;;;23.48;45.26;101487.94;5015202;28;21367;-81
2023/08/05 05:48:31;;;;;;;;;;;;;;;23.54;45.30;101489.44;5030690;28;19923;-82
2023/08/05 05:50:56;;;;;;;;;;;;;;;23.60;45.00;101490.91;5026818;28;19918;-81
2023/08/05 05:53:22;;;;;;;;;;;;;;;23.69;45.19;101496.41;5022346;28;20411;-82
2023/08/05 05:55:53;;;;;;;;;;;;;;;23.76;45.08;101489.34;5012895;28;20388;-82
2023/08/05 05:58:18;;;;;;;;;;;;;;;23.80;44.99;101490.31;5026060;28;19964;-82
2023/08/05 06:00:44;;;;;;;;;;;;;;;23.85;45.11;101496.75;5025489;28;19955;-82
2023/08/05 06:03:09;;;;;;;;;;;;;;;23.91;45.03;101490.03;5021163;28;19925;-82
2023/08/05 06:05:34;;;;;;;;;;;;;;;23.95;44.96;101489.06;5023531;28;19921;-82
2023/08/05 06:08:00;;;;;;;;;;;;;;;24.01;45.12;101486.97;5009437;28;20364;-82
2023/08/05 06:10:25;;;;;;;;;;;;;;;24.06;45.19;101493.09;5019625;28;20378;-82
2023/08/05 06:12:50;;;;;;;;;;;;;;;24.11;45.07;101484.72;5023810;28;20329;-82
2023/08/05 06:15:16;;;;;;;;;;;;;;;24.13;45.20;101484.41;5025815;28;20523;-82
2023/08/05 06:17:41;;;;;;;;;;;;;;;24.18;45.35;101484.22;5024059;28;19997;-82
2023/08/05 06:20:07;;;;;;;;;;;;;;;24.31;45.09;101483.31;5025205;28;20010;-81
2023/08/05 06:22:32;;;;;;;;;;;;;;;24.49;44.71;101483.28;5010745;28;20016;-82
2023/08/05 06:24:57;;;;;;;;;;;;;;;24.65;44.86;101476.97;5019719;28;19921;-81
2023/08/05 06:27:23;;;;;;;;;;;;;;;24.83;44.86;101477.75;5019619;28;19924;-82
2023/08/05 06:29:48;;;;;;;;;;;;;;;24.98;44.08;101479.97;5026047;28;19967;-82
2023/08/05 06:32:13;;;;;;;;;;;;;;;25.10;44.28;101478.47;5027580;28;20036;-82
2023/08/05 06:34:39;;;;;;;;;;;;;;;25.29;44.24;101474.19;5024536;28;20266;-82
2023/08/05 06:37:04;;;;;;;;;;;;;;;25.43;43.85;101467.69;5029683;28;19917;-81
2023/08/05 06:39:30;;;;;;;;;;;;;;;25.49;43.86;101469.91;5022004;28;20293;-81
2023/08/05 06:41:55;;;;;;;;;;;;;;;25.61;43.78;101482.91;5026401;28;19921;-82
2023/08/05 06:44:21;;;;;;;;;;;;;;;25.80;43.56;101477.03;5022661;28;19917;-82
2023/08/05 06:46:46;;;;;;;;;;;;;;;26.02;43.34;101476.69;5027276;28;19928;-82
2023/08/05 06:49:11;;;;;;;;;;;;;;;26.27;43.34;101485.06;5028128;28;19920;-81
2023/08/05 06:51:37;;;;;;;;;;;;;;;26.47;42.37;101482.31;5023066;28;19925;-81
2023/08/05 06:54:03;;;;;;;;;;;;;;;26.65;42.45;101488.44;5023474;28;20335;-81
2023/08/05 06:56:28;;;;;;;;;;;;;;;26.81;42.06;101491.38;5020044;28;19921;-81
2023/08/05 06:58:54;;;;;;;;;;;;;;;26.88;41.81;101491.59;5025070;28;20344;-81
2023/08/05 07:01:19;;;;;;;;;;;;;;;27.01;41.63;101492.47;5020527;28;19944;-81
2023/08/05 07:03:44;;;;;;;;;;;;;;;27.10;41.32;101484.91;5025664;28;19921;-81
2023/08/05 07:06:10;;;;;;;;;;;;;;;27.24;41.45;101488.13;5030097;28;19966;-81
2023/08/05 07:08:35;;;;;;;;;;;;;;;27.40;41.60;101483.53;5027062;28;19917;-81
2023/08/05 07:11:00;;;;;;;;;;;;;;;27.60;40.91;101483.75;5026626;28;19928;-81
2023/08/05 07:13:26;;;;;;;;;;;;;;;27.76;40.99;101484.69;5023861;28;20008;-81
2023/08/05 07:16:01;;;;;;;;;;;;;;;27.89;40.49;101479.97;5024363;28;19925;-81
2023/08/05 07:18:27;;;;;;;;;;;;;;;28.00;40.20;101478.31;5026364;28;19917;-81
2023/08/05 07:20:52;;;;;;;;;;;;;;;28.07;40.25;101470.28;5024253;28;19924;-81
2023/08/05 07:23:18;;;;;;;;;;;;;;;28.14;40.19;101467.72;5021093;28;19960;-82
2023/08/05 07:25:43;;;;;;;;;;;;;;;28.22;40.34;101471.50;5022117;28;20475;-82
2023/08/05 07:28:08;;;;;;;;;;;;;;;28.29;39.93;101474.47;5006569;28;20432;-82
2023/08/05 07:30:34;;;;;;;;;;;;;;;28.36;39.61;101471.09;5019305;28;20377;-82
2023/08/05 07:32:59;;;;;;;;;;;;;;;28.34;38.10;101471.47;5023554;28;19975;-81
2023/08/05 07:35:28;;;;;;;;;;;;;;;28.31;39.24;101463.91;5024580;28;20016;-81
2023/08/05 07:37:53;;;;;;;;;;;;;;;28.30;39.25;101470.56;5020677;28;20413;-82
2023/08/05 07:40:18;;;;;;;;;;;;;;;28.14;38.16;101477.94;5020046;28;20007;-82
2023/08/05 07:42:45;;;;;;;;;;;;;;;28.10;39.04;101463.25;5019267;28;20013;-81
2023/08/05 07:45:16;;;;;;;;;;;;;;;28.14;39.03;101466.91;5006787;28;19935;-81
2023/08/05 07:47:41;;;;;;;;;;;;;;;28.26;38.89;101466.91;5018560;28;19932;-81
2023/08/05 07:50:10;;;;;;;;;;;;;;;28.34;38.86;101465.94;5023558;28;19917;-81
2023/08/05 07:52:36;;;;;;;;;;;;;;;28.42;38.80;101462.25;5020108;28;19917;-82
2023/08/05 07:55:01;;;;;;;;;;;;;;;28.48;38.22;101476.56;5006694;28;19928;-84
2023/08/05 07:57:27;;;;;;;;;;;;;;;28.47;37.59;101470.25;5018251;28;19983;-84
2023/08/05 07:59:52;;;;;;;;;;;;;;;28.48;37.77;101480.13;5019390;28;19964;-85
2023/08/05 08:02:17;;;;;;;;;;;;;;;28.56;38.12;101470.13;5022846;28;20487;-84
2023/08/05 08:04:44;;;;;;;;;;;;;;;28.45;37.58;101472.56;5019142;28;19921;-81
2023/08/05 08:07:10;;;;;;;;;;;;;;;28.47;37.89;101470.25;5010782;28;20493;-82
2023/08/05 08:09:35;;;;;;;;;;;;;;;28.58;38.54;101465.03;5028867;28;19917;-83
2023/08/05 08:12:00;;;;;;;;;;;;;;;28.68;37.77;101464.50;5026810;28;20381;-81
2023/08/05 08:14:25;;;;;;;;;;;;;;;28.71;37.90;101469.31;5017542;28;19996;-84
2023/08/05 08:16:51;;;;;;;;;;;;;;;28.78;37.99;101458.47;5020890;28;20316;-81
2023/08/05 08:19:18;;;;;;;;;;;;;;;28.88;38.09;101455.22;5019766;28;19931;-83
2023/08/05 08:21:44;;;;;;;;;;;;;;;28.93;37.73;101453.38;5028281;28;19928;-85
2023/08/05 08:24:09;;;;;;;;;;;;;;;28.95;36.98;101456.56;5015287;28;20401;-84
2023/08/05 08:26:35;;;;;;;;;;;;;;;28.98;37.65;101453.09;5015773;28;20282;-83
2023/08/05 08:29:00;;;;;;;;;;;;;;;29.02;37.58;101454.78;5016758;28;19925;-82
2023/08/05 08:31:29;;;;;;;;;;;;;;;29.09;37.75;101446.69;5020974;28;19918;-84
2023/08/05 08:33:55;;;;;;;;;;;;;;;29.14;37.31;101446.41;5027087;28;19917;-84
2023/08/05 08:36:20;;;;;;;;;;;;;;;29.22;37.67;101444.63;5002328;28;19929;-82
2023/08/05 08:38:45;;;;;;;;;;;;;;;29.29;37.41;101442.03;5019899;28;19924;-83
2023/08/05 08:41:11;;;;;;;;;;;;;;;29.34;37.04;101446.47;5006485;28;20253;-85
2023/08/05 08:43:37;;;;;;;;;;;;;;;29.38;37.15;101442.63;5024548;28;20006;-83
2023/08/05 08:46:05;;;;;;;;;;;;;;;29.43;36.67;101439.59;5027164;28;19917;-84
2023/08/05 08:48:31;;;;;;;;;;;;;;;29.45;36.34;101445.59;5024567;28;19921;-84
2023/08/05 08:50:57;;;;;;;;;;;;;;;29.48;36.99;101446.84;5022174;28;19921;-82
2023/08/05 08:53:23;;;;;;;;;;;;;;;29.50;36.61;101450.03;5025345;28;20007;-85
2023/08/05 08:55:48;;;;;;;;;;;;;;;29.44;35.39;101443.97;5020900;28;20504;-82
2023/08/05 08:58:14;;;;;;;;;;;;;;;29.46;36.57;101443.66;5005553;28;19917;-82
2023/08/05 09:00:39;;;;;;;;;;;;;;;29.52;35.49;101444.97;5019598;28;20328;-84
2023/08/05 09:03:05;;;;;;;;;;;;;;;29.70;36.78;101440.63;5020026;28;19921;-85
2023/08/05 09:05:51;;;;;;;;;;;;;;;29.94;36.39;101445.06;5016599;28;19917;-82
2023/08/05 09:08:16;;;;;;;;;;;;;;;30.19;35.70;101442.88;5006197;28;19931;-83
2023/08/05 09:10:43;;;;;;;;;;;;;;;30.31;34.65;101442.69;5020737;28;19921;-85
2023/08/05 09:13:09;;;;;;;;;;;;;;;30.37;35.33;101449.53;5023438;28;19918;-84
2023/08/05 09:15:37;;;;;;;;;;;;;;;30.51;35.42;101448.19;5022165;28;19932;-82
2023/08/05 09:18:04;;;;;;;;;;;;;;;30.70;35.32;101434.34;5022400;28;19917;-84
2023/08/05 09:20:33;;;;;;;;;;;;;;;30.90;35.36;101433.13;5021025;28;19936;-84
2023/08/05 09:23:01;;;;;;;;;;;;;;;31.04;34.93;101437.28;5018712;28;19925;-83
2023/08/05 09:25:26;;;;;;;;;;;;;;;31.19;35.09;101439.13;5017995;28;19921;-83
2023/08/05 09:27:53;;;;;;;;;;;;;;;31.31;34.71;101429.81;5024134;28;19925;-85
2023/08/05 09:30:19;;;;;;;;;;;;;;;31.43;34.82;101437.94;5028180;28;19956;-83
2023/08/05 09:32:45;;;;;;;;;;;;;;;31.44;34.01;101423.72;5021685;28;19939;-82
2023/08/05 09:35:11;;;;;;;;;;;;;;;31.42;34.35;101414.97;5026337;28;19928;-83
2023/08/05 09:37:54;;;;;;;;;;;;;;;31.49;34.45;101420.59;5020533;28;19917;-83
2023/08/05 09:40:32;;;;;;;;;;;;;;;31.66;33.97;101421.22;5015530;28;20004;-84
2023/08/05 09:42:59;;;;;;;;;;;;;;;31.88;34.35;101419.56;5026707;28;20019;-83
2023/08/05 09:45:25;;;;;;;;;;;;;;;32.06;33.83;101421.34;5026528;28;20491;-84
2023/08/05 09:48:00;;;;;;;;;;;;;;;32.26;33.54;101419.19;5025328;28;19925;-85
2023/08/05 09:50:26;;;;;;;;;;;;;;;32.36;32.92;101417.75;5023139;28;19928;-82
2023/08/05 09:52:55;;;;;;;;;;;;;;;32.32;32.82;101420.50;5022722;28;19921;-84
2023/08/05 09:55:20;;;;;;;;;;;;;;;32.29;32.28;101407.38;5013936;28;20563;-82
2023/08/05 09:57:46;;;;;;;;;;;;;;;32.36;32.01;101409.44;5024843;28;19955;-82
2023/08/05 10:00:12;;;;;;;;;;;;;;;32.45;33.09;101404.38;5023295;28;19993;-84
2023/08/05 10:02:41;;;;;;;;;;;;;;;32.55;33.41;101402.88;5025173;28;20083;-84
2023/08/05 10:05:09;;;;;;;;;;;;;;;32.70;33.10;101399.06;5023096;28;19921;-84
2023/08/05 10:07:34;;;;;;;;;;;;;;;32.84;31.98;101396.41;5020350;28;19917;-84
2023/08/05 10:10:00;;;;;;;;;;;;;;;32.87;32.37;101392.88;5029931;28;20340;-85
2023/08/05 10:12:29;;;;;;;;;;;;;;;32.99;32.71;101394.53;5010925;28;19943;-84
2023/08/05 10:14:55;;;;;;;;;;;;;;;32.92;29.43;101394.50;5022050;28;20364;-81
2023/08/05 10:17:21;;;;;;;;;;;;;;;32.66;31.29;101393.44;5019674;28;19917;-81
2023/08/05 10:19:50;;;;;;;;;;;;;;;32.57;32.43;101384.66;5022730;28;19939;-83
2023/08/05 10:22:20;;;;;;;;;;;;;;;32.54;31.54;101390.19;5018769;28;19921;-82
2023/08/05 10:24:49;;;;;;;;;;;;;;;32.57;32.43;101386.66;5022587;28;20003;-84
2023/08/05 10:27:14;;;;;;;;;;;;;;;32.70;32.56;101393.50;5019742;28;21162;-83
2023/08/05 10:29:51;;;;;;;;;;;;;;;32.59;30.67;101390.63;5005950;28;20135;-81
2023/08/05 10:32:17;;;;;;;;;;;;;;;32.34;30.51;101393.19;5004380;28;20519;-82
2023/08/05 10:34:42;;;;;;;;;;;;;;;32.29;31.75;101401.81;5014759;28;19925;-81
2023/08/05 10:37:08;;;;;;;;;;;;;;;32.33;31.99;101401.88;5001209;28;19925;-82
2023/08/05 10:39:36;;;;;;;;;;;;;;;32.42;31.82;101399.59;5016335;28;20096;-82
2023/08/05 10:42:17;;;;;;;;;;;;;;;32.58;32.00;101397.34;5019119;28;19971;-84
2023/08/05 10:44:42;;;;;;;;;;;;;;;32.63;31.08;101385.09;5018719;28;20400;-82
2023/08/05 10:47:08;;;;;;;;;;;;;;;32.60;31.64;101383.91;5012976;28;20035;-81
2023/08/05 10:49:35;;;;;;;;;;;;;;;32.63;31.78;101388.69;5018885;28;19925;-84
2023/08/05 10:52:00;;;;;;;;;;;;;;;32.72;30.95;101380.84;5023795;28;20631;-83
2023/08/05 10:54:31;;;;;;;;;;;;;;;32.84;31.73;101381.72;5019713;28;19917;-84
2023/08/05 10:56:56;;;;;;;;;;;;;;;32.93;31.49;101371.09;5024051;28;19929;-83
2023/08/05 10:59:21;;;;;;;;;;;;;;;33.04;31.17;101360.88;5020736;28;19932;-84
2023/08/05 11:01:57;;;;;;;;;;;;;;;33.13;31.54;101360.53;5021998;28;19927;-86
2023/08/05 11:04:29;;;;;;;;;;;;;;;33.22;32.04;101361.78;5017184;28;19924;-84
2023/08/05 11:07:03;;;;;;;;;;;;;;;33.29;31.54;101350.72;5023554;28;20052;-85
2023/08/05 11:09:34;;;;;;;;;;;;;;;33.35;31.74;101348.38;5023823;28;19924;-84
2023/08/05 11:12:00;;;;;;;;;;;;;;;33.39;31.99;101346.41;5016752;28;20433;-86
2023/08/05 11:14:27;;;;;;;;;;;;;;;33.34;31.24;101339.25;5021567;28;20016;-85
2023/08/05 11:16:59;;;;;;;;;;;;;;;33.26;31.34;101347.91;5006738;28;20017;-86
2023/08/05 11:19:25;;;;;;;;;;;;;;;33.15;31.71;101347.84;5017454;28;19944;-85
2023/08/05 11:21:50;;;;;;;;;;;;;;;33.05;31.75;101345.81;5022878;28;19921;-83
2023/08/05 11:24:19;;;;;;;;;;;;;;;33.00;31.46;101337.84;5018638;28;20526;-84
2023/08/05 11:26:46;;;;;;;;;;;;;;;32.94;31.65;101342.16;5019733;28;19937;-85
2023/08/05 11:29:13;;;;;;;;;;;;;;;32.99;32.02;101344.56;5023326;28;20052;-84
2023/08/05 11:31:49;;;;;;;;;;;;;;;33.07;31.41;101339.88;5018571;28;20414;-86
2023/08/05 11:34:21;;;;;;;;;;;;;;;33.00;30.14;101341.41;5022062;28;20014;-85
2023/08/05 11:36:53;;;;;;;;;;;;;;;33.00;31.26;101340.63;5015713;28;19963;-85
2023/08/05 11:39:22;;;;;;;;;;;;;;;33.06;30.98;101325.19;5019193;28;19948;-86
2023/08/05 11:41:50;;;;;;;;;;;;;;;33.18;31.37;101327.63;5018764;28;19921;-83
2023/08/05 11:44:18;;;;;;;;;;;;;;;33.30;31.58;101334.84;5017321;28;20426;-82
2023/08/05 11:46:44;;;;;;;;;;;;;;;33.39;30.91;101331.72;5015354;28;20355;-84
2023/08/05 11:49:10;;;;;;;;;;;;;;;33.39;30.43;101324.19;5012135;28;19928;-84
2023/08/05 11:51:48;;;;;;;;;;;;;;;33.40;30.44;101325.81;5010161;28;19928;-84
2023/08/05 11:54:28;;;;;;;;;;;;;;;33.44;30.36;101325.81;5003425;28;19921;-82
2023/08/05 11:56:53;;;;;;;;;;;;;;;33.34;30.50;101324.56;5005432;28;19950;-84
2023/08/05 11:59:35;;;;;;;;;;;;;;;33.33;30.95;101320.22;5005282;28;20350;-85
2023/08/05 12:02:01;;;;;;;;;;;;;;;33.35;31.04;101326.97;4992711;28;19929;-85
2023/08/05 12:04:26;;;;;;;;;;;;;;;33.40;31.06;101328.59;5009672;28;19925;-83
2023/08/05 12:06:53;;;;;;;;;;;;;;;33.41;30.55;101332.16;5010202;28;19952;-84
2023/08/05 12:09:18;;;;;;;;;;;;;;;33.41;30.25;101321.84;4988890;28;19925;-84
2023/08/05 12:11:46;;;;;;;;;;;;;;;33.35;30.94;101321.41;5014074;28;19921;-84
2023/08/05 12:14:12;;;;;;;;;;;;;;;33.38;30.24;101321.81;5019989;28;20016;-84
2023/08/05 12:16:37;;;;;;;;;;;;;;;33.37;30.62;101315.44;5019504;28;19925;-83
2023/08/05 12:19:03;;;;;;;;;;;;;;;33.35;29.63;101321.41;4996491;28;19936;-84
2023/08/05 12:21:28;;;;;;;;;;;;;;;33.30;29.52;101305.09;5019632;28;20825;-83
2023/08/05 12:23:53;;;;;;;;;;;;;;;33.26;30.23;101311.81;5025102;28;19921;-85
2023/08/05 12:26:25;;;;;;;;;;;;;;;33.27;30.29;101311.44;5016108;28;19968;-85
2023/08/05 12:28:50;;;;;;;;;;;;;;;33.34;30.50;101310.69;5013896;28;20067;-84
2023/08/05 12:31:15;;;;;;;;;;;;;;;33.30;30.40;101304.28;5010518;28;20323;-81